sensor_id;sensor_type;location;lat;lon;timestamp;pressure;altitude;pressure_sealevel;temperature;humidity
2188;BME280;1100;52.014;8.540;2023-07-08T00:01:14;100511.84;;;15.59;58.77
2188;BME280;1100;52.014;8.540;2023-07-08T00:03:39;100508.72;;;15.57;58.72
2188;BME280;1100;52.014;8.540;2023-07-08T00:06:30;100512.47;;;15.54;58.78
2188;BME280;1100;52.014;8.540;2023-07-08T00:08:55;100516.50;;;15.53;59.07
2188;BME280;1100;52.014;8.540;2023-07-08T00:11:20;100511.03;;;15.49;59.07
2188;BME280;1100;52.014;8.540;2023-07-08T00:13:46;100505.59;;;15.45;59.18
2188;BME280;1100;52.014;8.540;2023-07-08T00:16:14;100506.03;;;15.44;59.34
2188;BME280;1100;52.014;8.540;2023-07-08T00:18:40;100496.22;;;15.39;59.30
2188;BME280;1100;52.014;8.540;2023-07-08T00:21:13;100506.69;;;15.39;59.36
2188;BME280;1100;52.014;8.540;2023-07-08T00:23:43;100518.81;;;15.36;59.41
2188;BME280;1100;52.014;8.540;2023-07-08T00:26:11;100507.75;;;15.32;59.52
2188;BME280;1100;52.014;8.540;2023-07-08T00:28:38;100501.34;;;15.31;59.66
2188;BME280;1100;52.014;8.540;2023-07-08T00:31:10;100505.41;;;15.30;59.76
2188;BME280;1100;52.014;8.540;2023-07-08T00:33:35;100505.06;;;15.28;59.84
2188;BME280;1100;52.014;8.540;2023-07-08T00:36:01;100506.47;;;15.24;59.89
2188;BME280;1100;52.014;8.540;2023-07-08T00:38:27;100498.53;;;15.22;59.91
2188;BME280;1100;52.014;8.540;2023-07-08T00:46:18;100490.09;;;15.13;60.57
2188;BME280;1100;52.014;8.540;2023-07-08T00:48:49;100493.34;;;15.11;60.20
2188;BME280;1100;52.014;8.540;2023-07-08T00:51:18;100495.84;;;15.09;59.90
2188;BME280;1100;52.014;8.540;2023-07-08T00:53:44;100491.19;;;15.06;60.39
2188;BME280;1100;52.014;8.540;2023-07-08T00:56:15;100492.09;;;15.03;60.10
2188;BME280;1100;52.014;8.540;2023-07-08T00:58:48;100495.38;;;15.01;60.32
2188;BME280;1100;52.014;8.540;2023-07-08T01:01:14;100499.53;;;14.97;60.34
2188;BME280;1100;52.014;8.540;2023-07-08T01:03:53;100489.28;;;14.93;60.71
2188;BME280;1100;52.014;8.540;2023-07-08T01:06:22;100484.59;;;14.90;60.64
2188;BME280;1100;52.014;8.540;2023-07-08T01:08:56;100486.28;;;14.88;60.54
2188;BME280;1100;52.014;8.540;2023-07-08T01:11:22;100483.16;;;14.86;60.75
2188;BME280;1100;52.014;8.540;2023-07-08T01:13:48;100479.25;;;14.83;60.81
2188;BME280;1100;52.014;8.540;2023-07-08T01:16:15;100486.56;;;14.80;60.92
2188;BME280;1100;52.014;8.540;2023-07-08T01:18:42;100473.47;;;14.77;60.98
2188;BME280;1100;52.014;8.540;2023-07-08T01:23:55;100474.03;;;14.72;61.20
2188;BME280;1100;52.014;8.540;2023-07-08T01:26:23;100470.94;;;14.70;61.16
2188;BME280;1100;52.014;8.540;2023-07-08T01:28:50;100468.75;;;14.65;61.34
2188;BME280;1100;52.014;8.540;2023-07-08T01:31:16;100468.41;;;14.63;61.23
2188;BME280;1100;52.014;8.540;2023-07-08T01:33:42;100466.53;;;14.60;61.32
2188;BME280;1100;52.014;8.540;2023-07-08T01:36:10;100474.59;;;14.57;61.35
2188;BME280;1100;52.014;8.540;2023-07-08T01:38:38;100471.03;;;14.57;61.47
2188;BME280;1100;52.014;8.540;2023-07-08T01:41:04;100469.44;;;14.56;61.55
2188;BME280;1100;52.014;8.540;2023-07-08T01:43:29;100461.22;;;14.52;61.60
2188;BME280;1100;52.014;8.540;2023-07-08T01:45:58;100468.50;;;14.50;61.58
2188;BME280;1100;52.014;8.540;2023-07-08T01:48:27;100465.84;;;14.46;61.76
2188;BME280;1100;52.014;8.540;2023-07-08T01:50:58;100456.78;;;14.42;61.88
2188;BME280;1100;52.014;8.540;2023-07-08T01:53:38;100458.50;;;14.39;61.90
2188;BME280;1100;52.014;8.540;2023-07-08T01:56:05;100458.94;;;14.38;61.78
2188;BME280;1100;52.014;8.540;2023-07-08T01:58:31;100457.41;;;14.37;62.04
2188;BME280;1100;52.014;8.540;2023-07-08T02:00:57;100453.81;;;14.36;62.08
2188;BME280;1100;52.014;8.540;2023-07-08T02:03:22;100451.94;;;14.33;62.17
2188;BME280;1100;52.014;8.540;2023-07-08T02:05:48;100446.81;;;14.31;62.10
2188;BME280;1100;52.014;8.540;2023-07-08T02:08:13;100453.63;;;14.30;62.35
2188;BME280;1100;52.014;8.540;2023-07-08T02:10:42;100443.38;;;14.27;62.30
2188;BME280;1100;52.014;8.540;2023-07-08T02:13:08;100448.63;;;14.25;62.36
2188;BME280;1100;52.014;8.540;2023-07-08T02:15:35;100438.22;;;14.26;62.41
2188;BME280;1100;52.014;8.540;2023-07-08T02:18:01;100446.63;;;14.26;62.45
2188;BME280;1100;52.014;8.540;2023-07-08T02:20:26;100439.16;;;14.23;62.36
2188;BME280;1100;52.014;8.540;2023-07-08T02:22:52;100432.75;;;14.22;62.36
2188;BME280;1100;52.014;8.540;2023-07-08T02:25:17;100427.63;;;14.20;62.51
2188;BME280;1100;52.014;8.540;2023-07-08T02:27:42;100432.13;;;14.18;62.47
2188;BME280;1100;52.014;8.540;2023-07-08T02:30:08;100427.44;;;14.15;62.49
2188;BME280;1100;52.014;8.540;2023-07-08T02:32:34;100430.81;;;14.10;62.52
2188;BME280;1100;52.014;8.540;2023-07-08T02:35:01;100431.28;;;14.08;62.66
2188;BME280;1100;52.014;8.540;2023-07-08T02:37:28;100427.84;;;14.04;62.68
2188;BME280;1100;52.014;8.540;2023-07-08T02:39:54;100430.44;;;13.98;62.68
2188;BME280;1100;52.014;8.540;2023-07-08T02:42:19;100428.88;;;13.97;62.89
2188;BME280;1100;52.014;8.540;2023-07-08T02:44:44;100425.44;;;13.93;62.80
2188;BME280;1100;52.014;8.540;2023-07-08T02:47:09;100422.66;;;13.93;62.75
2188;BME280;1100;52.014;8.540;2023-07-08T02:49:35;100429.44;;;13.92;63.14
2188;BME280;1100;52.014;8.540;2023-07-08T02:52:00;100425.09;;;13.91;62.98
2188;BME280;1100;52.014;8.540;2023-07-08T02:54:25;100421.06;;;13.92;62.92
2188;BME280;1100;52.014;8.540;2023-07-08T02:56:51;100413.94;;;13.91;63.22
2188;BME280;1100;52.014;8.540;2023-07-08T02:59:16;100423.56;;;13.90;63.23
2188;BME280;1100;52.014;8.540;2023-07-08T03:01:41;100427.25;;;13.87;63.25
2188;BME280;1100;52.014;8.540;2023-07-08T03:04:10;100426.94;;;13.85;63.29
2188;BME280;1100;52.014;8.540;2023-07-08T03:06:44;100428.63;;;13.82;63.31
2188;BME280;1100;52.014;8.540;2023-07-08T03:09:11;100430.63;;;13.81;63.38
2188;BME280;1100;52.014;8.540;2023-07-08T03:11:38;100428.28;;;13.80;63.42
2188;BME280;1100;52.014;8.540;2023-07-08T03:14:04;100427.50;;;13.79;63.42
2188;BME280;1100;52.014;8.540;2023-07-08T03:16:29;100422.81;;;13.76;63.23
2188;BME280;1100;52.014;8.540;2023-07-08T03:18:55;100426.06;;;13.75;63.51
2188;BME280;1100;52.014;8.540;2023-07-08T03:21:20;100421.28;;;13.75;63.56
2188;BME280;1100;52.014;8.540;2023-07-08T03:23:48;100432.44;;;13.75;63.67
2188;BME280;1100;52.014;8.540;2023-07-08T03:26:25;100428.84;;;13.75;63.55
2188;BME280;1100;52.014;8.540;2023-07-08T03:28:51;100424.06;;;13.75;63.61
2188;BME280;1100;52.014;8.540;2023-07-08T03:31:17;100427.19;;;13.77;63.71
2188;BME280;1100;52.014;8.540;2023-07-08T03:33:42;100425.63;;;13.76;63.85
2188;BME280;1100;52.014;8.540;2023-07-08T03:36:16;100423.59;;;13.77;63.81
2188;BME280;1100;52.014;8.540;2023-07-08T03:38:53;100423.28;;;13.75;63.89
2188;BME280;1100;52.014;8.540;2023-07-08T03:41:20;100424.06;;;13.75;63.97
2188;BME280;1100;52.014;8.540;2023-07-08T03:43:46;100425.63;;;13.76;64.06
2188;BME280;1100;52.014;8.540;2023-07-08T03:46:12;100421.59;;;13.77;64.35
2188;BME280;1100;52.014;8.540;2023-07-08T03:48:38;100423.16;;;13.78;64.10
2188;BME280;1100;52.014;8.540;2023-07-08T03:51:07;100427.84;;;13.81;64.04
2188;BME280;1100;52.014;8.540;2023-07-08T03:53:34;100422.59;;;13.83;64.08
2188;BME280;1100;52.014;8.540;2023-07-08T03:56:00;100422.13;;;13.85;64.12
2188;BME280;1100;52.014;8.540;2023-07-08T03:58:25;100430.06;;;13.87;64.15
2188;BME280;1100;52.014;8.540;2023-07-08T04:00:50;100428.81;;;13.88;64.23
2188;BME280;1100;52.014;8.540;2023-07-08T04:03:15;100418.72;;;13.90;64.32
2188;BME280;1100;52.014;8.540;2023-07-08T04:05:41;100415.47;;;13.92;64.31
2188;BME280;1100;52.014;8.540;2023-07-08T04:08:06;100419.41;;;13.94;64.25
2188;BME280;1100;52.014;8.540;2023-07-08T04:10:31;100422.03;;;13.98;64.34
2188;BME280;1100;52.014;8.540;2023-07-08T04:12:57;100423.94;;;14.01;64.33
2188;BME280;1100;52.014;8.540;2023-07-08T04:15:22;100417.88;;;14.03;64.56
2188;BME280;1100;52.014;8.540;2023-07-08T04:17:51;100421.81;;;14.05;64.61
2188;BME280;1100;52.014;8.540;2023-07-08T04:20:18;100420.88;;;14.08;64.59
2188;BME280;1100;52.014;8.540;2023-07-08T04:22:44;100420.28;;;14.14;64.61
2188;BME280;1100;52.014;8.540;2023-07-08T04:25:11;100428.53;;;14.17;64.71
2188;BME280;1100;52.014;8.540;2023-07-08T04:27:37;100433.56;;;14.23;64.69
2188;BME280;1100;52.014;8.540;2023-07-08T04:30:03;100435.75;;;14.28;64.76
2188;BME280;1100;52.014;8.540;2023-07-08T04:32:29;100435.16;;;14.33;64.79
2188;BME280;1100;52.014;8.540;2023-07-08T04:34:55;100438.47;;;14.41;64.83
2188;BME280;1100;52.014;8.540;2023-07-08T04:37:20;100436.31;;;14.45;64.77
2188;BME280;1100;52.014;8.540;2023-07-08T04:39:46;100442.09;;;14.51;64.74
2188;BME280;1100;52.014;8.540;2023-07-08T04:42:12;100439.47;;;14.56;64.82
2188;BME280;1100;52.014;8.540;2023-07-08T04:44:44;100445.25;;;14.62;64.89
2188;BME280;1100;52.014;8.540;2023-07-08T04:47:09;100442.97;;;14.70;64.94
2188;BME280;1100;52.014;8.540;2023-07-08T04:49:37;100442.69;;;14.77;65.10
2188;BME280;1100;52.014;8.540;2023-07-08T04:52:02;100449.44;;;14.89;65.07
2188;BME280;1100;52.014;8.540;2023-07-08T04:54:28;100444.78;;;14.95;65.15
2188;BME280;1100;52.014;8.540;2023-07-08T04:56:54;100441.56;;;15.06;65.11
2188;BME280;1100;52.014;8.540;2023-07-08T04:59:22;100440.81;;;15.15;65.09
2188;BME280;1100;52.014;8.540;2023-07-08T05:01:49;100445.50;;;15.28;65.44
2188;BME280;1100;52.014;8.540;2023-07-08T05:04:16;100446.94;;;15.42;65.66
2188;BME280;1100;52.014;8.540;2023-07-08T05:06:42;100445.53;;;15.56;65.33
2188;BME280;1100;52.014;8.540;2023-07-08T05:09:08;100440.41;;;15.73;65.15
2188;BME280;1100;52.014;8.540;2023-07-08T05:11:33;100440.22;;;15.86;65.11
2188;BME280;1100;52.014;8.540;2023-07-08T05:13:59;100442.91;;;15.99;65.08
2188;BME280;1100;52.014;8.540;2023-07-08T05:16:24;100441.66;;;16.10;64.84
2188;BME280;1100;52.014;8.540;2023-07-08T05:18:50;100445.84;;;16.24;65.05
2188;BME280;1100;52.014;8.540;2023-07-08T05:21:17;100434.88;;;16.35;64.88
2188;BME280;1100;52.014;8.540;2023-07-08T05:23:44;100443.91;;;16.49;65.11
2188;BME280;1100;52.014;8.540;2023-07-08T05:26:09;100432.94;;;16.60;64.73
2188;BME280;1100;52.014;8.540;2023-07-08T05:28:35;100432.91;;;16.69;64.67
2188;BME280;1100;52.014;8.540;2023-07-08T05:31:01;100433.34;;;16.77;64.41
2188;BME280;1100;52.014;8.540;2023-07-08T05:33:28;100428.94;;;16.86;64.28
2188;BME280;1100;52.014;8.540;2023-07-08T05:35:54;100427.03;;;16.92;64.17
2188;BME280;1100;52.014;8.540;2023-07-08T05:38:20;100430.75;;;16.98;64.12
2188;BME280;1100;52.014;8.540;2023-07-08T05:40:50;100443.19;;;17.06;64.17
2188;BME280;1100;52.014;8.540;2023-07-08T05:43:18;100438.31;;;17.16;64.02
2188;BME280;1100;52.014;8.540;2023-07-08T05:45:43;100443.88;;;17.26;63.99
2188;BME280;1100;52.014;8.540;2023-07-08T05:48:09;100437.13;;;17.33;63.83
2188;BME280;1100;52.014;8.540;2023-07-08T05:50:35;100435.53;;;17.41;63.85
2188;BME280;1100;52.014;8.540;2023-07-08T05:53:00;100431.28;;;17.46;63.71
2188;BME280;1100;52.014;8.540;2023-07-08T05:55:25;100432.16;;;17.52;63.55
2188;BME280;1100;52.014;8.540;2023-07-08T05:57:51;100429.75;;;17.60;63.46
2188;BME280;1100;52.014;8.540;2023-07-08T06:00:16;100430.47;;;17.70;63.60
2188;BME280;1100;52.014;8.540;2023-07-08T06:02:41;100429.69;;;17.84;63.53
2188;BME280;1100;52.014;8.540;2023-07-08T06:05:07;100426.94;;;17.99;63.39
2188;BME280;1100;52.014;8.540;2023-07-08T06:07:32;100423.34;;;18.14;63.26
2188;BME280;1100;52.014;8.540;2023-07-08T06:09:57;100428.22;;;18.28;63.01
2188;BME280;1100;52.014;8.540;2023-07-08T06:12:24;100426.34;;;18.40;62.89
2188;BME280;1100;52.014;8.540;2023-07-08T06:14:49;100421.69;;;18.52;62.82
2188;BME280;1100;52.014;8.540;2023-07-08T06:17:16;100420.13;;;18.66;62.67
2188;BME280;1100;52.014;8.540;2023-07-08T06:19:42;100419.69;;;18.74;62.60
2188;BME280;1100;52.014;8.540;2023-07-08T06:22:07;100417.25;;;18.82;62.47
2188;BME280;1100;52.014;8.540;2023-07-08T06:24:32;100419.69;;;18.89;62.18
2188;BME280;1100;52.014;8.540;2023-07-08T06:26:58;100417.97;;;18.97;62.37
2188;BME280;1100;52.014;8.540;2023-07-08T06:29:24;100423.00;;;19.08;62.26
2188;BME280;1100;52.014;8.540;2023-07-08T06:31:50;100420.06;;;19.17;62.20
2188;BME280;1100;52.014;8.540;2023-07-08T06:34:15;100422.75;;;19.27;62.02
2188;BME280;1100;52.014;8.540;2023-07-08T06:36:40;100418.06;;;19.39;61.95
2188;BME280;1100;52.014;8.540;2023-07-08T06:39:06;100423.31;;;19.52;61.58
2188;BME280;1100;52.014;8.540;2023-07-08T06:41:34;100414.00;;;19.66;61.67
2188;BME280;1100;52.014;8.540;2023-07-08T06:43:59;100411.84;;;19.82;61.18
2188;BME280;1100;52.014;8.540;2023-07-08T06:46:25;100416.13;;;19.98;61.33
2188;BME280;1100;52.014;8.540;2023-07-08T06:48:50;100420.66;;;20.16;61.22
2188;BME280;1100;52.014;8.540;2023-07-08T06:51:15;100419.78;;;20.31;60.79
2188;BME280;1100;52.014;8.540;2023-07-08T06:53:41;100421.19;;;20.47;60.53
2188;BME280;1100;52.014;8.540;2023-07-08T06:56:06;100419.94;;;20.54;60.39
2188;BME280;1100;52.014;8.540;2023-07-08T06:58:32;100421.81;;;20.63;60.22
2188;BME280;1100;52.014;8.540;2023-07-08T07:00:57;100415.47;;;20.74;59.92
2188;BME280;1100;52.014;8.540;2023-07-08T07:03:23;100428.59;;;20.83;59.94
2188;BME280;1100;52.014;8.540;2023-07-08T07:05:48;100431.03;;;20.96;60.11
2188;BME280;1100;52.014;8.540;2023-07-08T07:08:14;100418.53;;;21.14;59.85
2188;BME280;1100;52.014;8.540;2023-07-08T07:10:39;100420.91;;;21.27;59.65
2188;BME280;1100;52.014;8.540;2023-07-08T07:13:04;100433.06;;;21.45;59.60
2188;BME280;1100;52.014;8.540;2023-07-08T07:15:30;100426.19;;;21.63;59.70
2188;BME280;1100;52.014;8.540;2023-07-08T07:17:57;100426.25;;;21.80;59.31
2188;BME280;1100;52.014;8.540;2023-07-08T07:20:23;100428.84;;;21.95;58.98
2188;BME280;1100;52.014;8.540;2023-07-08T07:22:49;100435.53;;;22.09;58.67
2188;BME280;1100;52.014;8.540;2023-07-08T07:25:15;100424.00;;;22.24;58.55
2188;BME280;1100;52.014;8.540;2023-07-08T07:27:40;100435.84;;;22.40;58.28
2188;BME280;1100;52.014;8.540;2023-07-08T07:30:06;100434.00;;;22.48;58.07
2188;BME280;1100;52.014;8.540;2023-07-08T07:32:31;100432.22;;;22.62;57.83
2188;BME280;1100;52.014;8.540;2023-07-08T07:34:59;100430.66;;;22.78;57.70
2188;BME280;1100;52.014;8.540;2023-07-08T07:37:25;100437.34;;;22.98;57.57
2188;BME280;1100;52.014;8.540;2023-07-08T07:39:50;100431.09;;;23.17;57.46
2188;BME280;1100;52.014;8.540;2023-07-08T07:42:17;100437.72;;;23.37;56.96
2188;BME280;1100;52.014;8.540;2023-07-08T07:44:44;100436.13;;;23.53;56.73
2188;BME280;1100;52.014;8.540;2023-07-08T07:47:09;100433.44;;;23.72;56.34
2188;BME280;1100;52.014;8.540;2023-07-08T07:49:35;100434.69;;;23.83;55.95
2188;BME280;1100;52.014;8.540;2023-07-08T07:52:01;100431.25;;;23.90;55.69
2188;BME280;1100;52.014;8.540;2023-07-08T07:54:26;100427.06;;;24.02;55.88
2188;BME280;1100;52.014;8.540;2023-07-08T07:56:52;100425.16;;;24.17;55.60
2188;BME280;1100;52.014;8.540;2023-07-08T07:59:17;100425.75;;;24.40;55.17
2188;BME280;1100;52.014;8.540;2023-07-08T08:01:43;100425.97;;;24.73;54.83
2188;BME280;1100;52.014;8.540;2023-07-08T08:04:10;100422.50;;;25.11;54.57
2188;BME280;1100;52.014;8.540;2023-07-08T08:06:36;100425.22;;;25.42;54.12
2188;BME280;1100;52.014;8.540;2023-07-08T08:09:03;100431.47;;;25.79;54.19
2188;BME280;1100;52.014;8.540;2023-07-08T08:11:28;100429.19;;;26.10;53.61
2188;BME280;1100;52.014;8.540;2023-07-08T08:13:54;100420.53;;;26.35;53.52
2188;BME280;1100;52.014;8.540;2023-07-08T08:16:20;100426.38;;;26.56;53.11
2188;BME280;1100;52.014;8.540;2023-07-08T08:18:46;100428.72;;;26.71;52.77
2188;BME280;1100;52.014;8.540;2023-07-08T08:21:11;100434.88;;;26.89;52.65
2188;BME280;1100;52.014;8.540;2023-07-08T08:23:36;100437.28;;;27.12;52.17
2188;BME280;1100;52.014;8.540;2023-07-08T08:26:02;100440.69;;;27.24;52.03
2188;BME280;1100;52.014;8.540;2023-07-08T08:28:27;100441.09;;;27.42;51.62
2188;BME280;1100;52.014;8.540;2023-07-08T08:30:52;100437.44;;;27.68;51.82
2188;BME280;1100;52.014;8.540;2023-07-08T08:33:19;100435.69;;;28.00;51.55
2188;BME280;1100;52.014;8.540;2023-07-08T08:35:45;100433.19;;;28.18;50.71
2188;BME280;1100;52.014;8.540;2023-07-08T08:38:10;100445.25;;;28.24;50.36
2188;BME280;1100;52.014;8.540;2023-07-08T08:40:36;100438.91;;;28.39;50.38
2188;BME280;1100;52.014;8.540;2023-07-08T08:43:04;100443.41;;;28.56;48.91
2188;BME280;1100;52.014;8.540;2023-07-08T08:45:34;100433.59;;;28.65;49.38
2188;BME280;1100;52.014;8.540;2023-07-08T08:48:05;100435.00;;;28.79;48.38
2188;BME280;1100;52.014;8.540;2023-07-08T08:50:51;100436.94;;;28.84;48.83
2188;BME280;1100;52.014;8.540;2023-07-08T08:53:19;100440.03;;;28.87;48.52
2188;BME280;1100;52.014;8.540;2023-07-08T08:55:57;100428.41;;;28.92;48.47
2188;BME280;1100;52.014;8.540;2023-07-08T08:58:41;100438.75;;;28.95;47.12
2188;BME280;1100;52.014;8.540;2023-07-08T09:01:11;100437.56;;;28.91;47.26
2188;BME280;1100;52.014;8.540;2023-07-08T09:03:47;100435.59;;;29.07;47.59
2188;BME280;1100;52.014;8.540;2023-07-08T09:06:17;100436.63;;;29.25;47.99
2188;BME280;1100;52.014;8.540;2023-07-08T09:08:44;100431.53;;;29.39;47.31
2188;BME280;1100;52.014;8.540;2023-07-08T09:11:18;100435.00;;;29.45;46.97
2188;BME280;1100;52.014;8.540;2023-07-08T09:13:44;100435.41;;;29.50;46.82
2188;BME280;1100;52.014;8.540;2023-07-08T09:16:36;100433.88;;;29.56;46.67
2188;BME280;1100;52.014;8.540;2023-07-08T09:21:57;100428.84;;;30.02;46.76
2188;BME280;1100;52.014;8.540;2023-07-08T09:24:37;100436.72;;;30.09;46.45
2188;BME280;1100;52.014;8.540;2023-07-08T09:27:05;100433.69;;;30.23;46.78
2188;BME280;1100;52.014;8.540;2023-07-08T09:29:31;100438.28;;;30.41;46.50
2188;BME280;1100;52.014;8.540;2023-07-08T09:31:58;100427.94;;;30.46;45.74
2188;BME280;1100;52.014;8.540;2023-07-08T09:34:36;100425.09;;;30.46;45.71
2188;BME280;1100;52.014;8.540;2023-07-08T09:37:03;100428.13;;;30.56;45.96
2188;BME280;1100;52.014;8.540;2023-07-08T09:39:44;100419.72;;;30.58;45.20
2188;BME280;1100;52.014;8.540;2023-07-08T09:42:09;100417.81;;;30.61;44.95
2188;BME280;1100;52.014;8.540;2023-07-08T09:44:35;100421.81;;;30.81;44.63
2188;BME280;1100;52.014;8.540;2023-07-08T09:47:19;100415.63;;;31.08;45.32
2188;BME280;1100;52.014;8.540;2023-07-08T09:49:47;100418.22;;;31.29;44.90
2188;BME280;1100;52.014;8.540;2023-07-08T09:52:13;100431.19;;;31.46;42.53
2188;BME280;1100;52.014;8.540;2023-07-08T09:54:40;100424.47;;;31.51;38.51
2188;BME280;1100;52.014;8.540;2023-07-08T09:59:48;100435.13;;;31.58;38.08
2188;BME280;1100;52.014;8.540;2023-07-08T10:04:45;100435.38;;;31.86;35.31
2188;BME280;1100;52.014;8.540;2023-07-08T10:07:16;100437.63;;;31.95;36.99
2188;BME280;1100;52.014;8.540;2023-07-08T10:09:42;100435.06;;;32.07;35.38
2188;BME280;1100;52.014;8.540;2023-07-08T10:12:11;100430.25;;;32.10;34.65
2188;BME280;1100;52.014;8.540;2023-07-08T10:14:46;100437.53;;;32.11;34.07
2188;BME280;1100;52.014;8.540;2023-07-08T10:17:16;100432.31;;;32.17;32.29
2188;BME280;1100;52.014;8.540;2023-07-08T10:19:42;100425.63;;;32.15;33.07
2188;BME280;1100;52.014;8.540;2023-07-08T10:22:12;100417.34;;;32.19;33.53
2188;BME280;1100;52.014;8.540;2023-07-08T10:27:52;100427.59;;;32.30;33.33
2188;BME280;1100;52.014;8.540;2023-07-08T10:31:05;100429.38;;;32.51;32.62
2188;BME280;1100;52.014;8.540;2023-07-08T10:36:15;100432.34;;;32.78;34.00
2188;BME280;1100;52.014;8.540;2023-07-08T10:38:56;100430.59;;;33.01;33.15
2188;BME280;1100;52.014;8.540;2023-07-08T10:43:59;100429.41;;;33.22;32.15
2188;BME280;1100;52.014;8.540;2023-07-08T10:46:43;100428.56;;;33.11;31.75
2188;BME280;1100;52.014;8.540;2023-07-08T10:49:47;100424.31;;;33.12;32.49
2188;BME280;1100;52.014;8.540;2023-07-08T10:55:26;100426.28;;;33.27;33.84
2188;BME280;1100;52.014;8.540;2023-07-08T11:06:01;100414.56;;;33.43;33.73
2188;BME280;1100;52.014;8.540;2023-07-08T11:08:38;100404.31;;;33.32;30.55
2188;BME280;1100;52.014;8.540;2023-07-08T11:11:15;100418.75;;;33.14;30.56
2188;BME280;1100;52.014;8.540;2023-07-08T11:13:48;100409.50;;;33.16;31.91
2188;BME280;1100;52.014;8.540;2023-07-08T11:16:26;100405.84;;;33.33;31.73
2188;BME280;1100;52.014;8.540;2023-07-08T11:19:00;100392.59;;;33.48;31.40
2188;BME280;1100;52.014;8.540;2023-07-08T11:21:47;100399.56;;;33.44;30.86
2188;BME280;1100;52.014;8.540;2023-07-08T11:24:32;100396.84;;;33.47;31.22
2188;BME280;1100;52.014;8.540;2023-07-08T11:27:09;100397.47;;;33.55;31.88
2188;BME280;1100;52.014;8.540;2023-07-08T11:30:02;100398.78;;;33.44;30.91
2188;BME280;1100;52.014;8.540;2023-07-08T11:32:31;100397.47;;;33.27;30.76
2188;BME280;1100;52.014;8.540;2023-07-08T11:34:59;100397.50;;;33.10;29.35
2188;BME280;1100;52.014;8.540;2023-07-08T11:37:26;100387.84;;;32.97;28.98
2188;BME280;1100;52.014;8.540;2023-07-08T11:39:58;100392.66;;;32.94;30.26
2188;BME280;1100;52.014;8.540;2023-07-08T11:45:08;100388.88;;;33.10;30.24
2188;BME280;1100;52.014;8.540;2023-07-08T11:47:41;100379.72;;;33.21;31.11
2188;BME280;1100;52.014;8.540;2023-07-08T11:50:30;100380.88;;;33.36;30.15
2188;BME280;1100;52.014;8.540;2023-07-08T11:53:03;100383.78;;;33.46;30.06
2188;BME280;1100;52.014;8.540;2023-07-08T11:58:19;100382.56;;;33.66;29.96
2188;BME280;1100;52.014;8.540;2023-07-08T12:01:05;100383.69;;;33.81;30.27
2188;BME280;1100;52.014;8.540;2023-07-08T12:03:48;100383.75;;;33.63;29.53
2188;BME280;1100;52.014;8.540;2023-07-08T12:09:00;100378.78;;;33.46;29.55
2188;BME280;1100;52.014;8.540;2023-07-08T12:11:40;100379.38;;;33.44;29.07
2188;BME280;1100;52.014;8.540;2023-07-08T12:14:06;100360.53;;;33.34;30.26
2188;BME280;1100;52.014;8.540;2023-07-08T12:16:34;100364.72;;;33.23;30.04
2188;BME280;1100;52.014;8.540;2023-07-08T12:19:00;100363.44;;;33.16;30.10
2188;BME280;1100;52.014;8.540;2023-07-08T12:21:27;100361.16;;;33.14;31.01
2188;BME280;1100;52.014;8.540;2023-07-08T12:23:53;100366.41;;;32.90;30.14
2188;BME280;1100;52.014;8.540;2023-07-08T12:26:18;100361.00;;;32.59;30.62
2188;BME280;1100;52.014;8.540;2023-07-08T12:28:44;100363.88;;;32.41;31.33
2188;BME280;1100;52.014;8.540;2023-07-08T12:31:20;100359.59;;;32.25;31.09
2188;BME280;1100;52.014;8.540;2023-07-08T12:33:46;100358.50;;;31.94;31.74
2188;BME280;1100;52.014;8.540;2023-07-08T12:36:19;100366.53;;;31.70;31.60
2188;BME280;1100;52.014;8.540;2023-07-08T12:38:46;100358.06;;;31.47;31.83
2188;BME280;1100;52.014;8.540;2023-07-08T12:41:29;100353.28;;;31.42;32.18
2188;BME280;1100;52.014;8.540;2023-07-08T12:43:56;100352.94;;;31.38;32.51
2188;BME280;1100;52.014;8.540;2023-07-08T12:46:22;100355.81;;;31.38;32.02
2188;BME280;1100;52.014;8.540;2023-07-08T12:48:49;100349.31;;;31.37;32.97
2188;BME280;1100;52.014;8.540;2023-07-08T12:51:19;100350.06;;;31.38;32.21
2188;BME280;1100;52.014;8.540;2023-07-08T12:53:46;100349.50;;;31.31;32.41
2188;BME280;1100;52.014;8.540;2023-07-08T12:56:11;100355.03;;;31.37;31.51
2188;BME280;1100;52.014;8.540;2023-07-08T12:58:40;100348.94;;;31.33;30.88
2188;BME280;1100;52.014;8.540;2023-07-08T13:01:06;100347.00;;;31.36;30.52
2188;BME280;1100;52.014;8.540;2023-07-08T13:03:39;100345.44;;;31.42;31.11
2188;BME280;1100;52.014;8.540;2023-07-08T13:06:07;100346.06;;;31.33;30.61
2188;BME280;1100;52.014;8.540;2023-07-08T13:08:36;100345.88;;;31.31;30.66
2188;BME280;1100;52.014;8.540;2023-07-08T13:11:03;100344.88;;;31.36;30.17
2188;BME280;1100;52.014;8.540;2023-07-08T13:13:36;100342.41;;;31.40;30.33
2188;BME280;1100;52.014;8.540;2023-07-08T13:16:03;100341.63;;;31.40;30.94
2188;BME280;1100;52.014;8.540;2023-07-08T13:18:34;100336.25;;;31.44;30.72
2188;BME280;1100;52.014;8.540;2023-07-08T13:21:02;100335.84;;;31.48;30.57
2188;BME280;1100;52.014;8.540;2023-07-08T13:23:28;100336.91;;;31.60;29.58
2188;BME280;1100;52.014;8.540;2023-07-08T13:25:54;100342.19;;;31.72;29.86
2188;BME280;1100;52.014;8.540;2023-07-08T13:28:27;100333.03;;;31.91;30.31
2188;BME280;1100;52.014;8.540;2023-07-08T13:30:53;100335.69;;;32.22;29.42
2188;BME280;1100;52.014;8.540;2023-07-08T13:33:19;100337.34;;;32.51;29.03
2188;BME280;1100;52.014;8.540;2023-07-08T13:35:46;100342.06;;;32.74;29.22
2188;BME280;1100;52.014;8.540;2023-07-08T13:38:23;100334.75;;;32.90;29.31
2188;BME280;1100;52.014;8.540;2023-07-08T13:40:53;100338.72;;;32.95;29.17
2188;BME280;1100;52.014;8.540;2023-07-08T13:43:27;100332.97;;;32.95;29.48
2188;BME280;1100;52.014;8.540;2023-07-08T13:45:53;100335.94;;;33.05;30.49
2188;BME280;1100;52.014;8.540;2023-07-08T13:50:52;100337.97;;;32.94;30.05
2188;BME280;1100;52.014;8.540;2023-07-08T13:53:28;100333.84;;;32.88;29.91
2188;BME280;1100;52.014;8.540;2023-07-08T13:56:01;100337.66;;;32.73;29.41
2188;BME280;1100;52.014;8.540;2023-07-08T13:58:28;100335.72;;;32.57;28.76
2188;BME280;1100;52.014;8.540;2023-07-08T14:00:54;100325.44;;;32.47;29.56
2188;BME280;1100;52.014;8.540;2023-07-08T14:03:20;100338.78;;;32.60;30.12